sensor_id;sensor_type;location;lat;lon;timestamp;P1;durP1;ratioP1;P2;durP2;ratioP2
28343;SDS011;15597;50.914;6.638;2023-08-17T00:00:01;5.97;;;3.00;;
28343;SDS011;15597;50.914;6.638;2023-08-17T00:02:30;6.03;;;3.33;;
28343;SDS011;15597;50.914;6.638;2023-08-17T00:04:57;5.68;;;3.97;;
28343;SDS011;15597;50.914;6.638;2023-08-17T00:07:22;8.18;;;4.45;;
28343;SDS011;15597;50.914;6.638;2023-08-17T00:09:48;5.35;;;3.17;;
28343;SDS011;15597;50.914;6.638;2023-08-17T00:12:13;5.43;;;3.47;;
28343;SDS011;15597;50.914;6.638;2023-08-17T00:14:39;8.13;;;4.95;;
28343;SDS011;15597;50.914;6.638;2023-08-17T00:17:05;4.60;;;2.67;;
28343;SDS011;15597;50.914;6.638;2023-08-17T00:19:31;5.47;;;3.28;;
28343;SDS011;15597;50.914;6.638;2023-08-17T00:21:57;5.88;;;3.08;;
28343;SDS011;15597;50.914;6.638;2023-08-17T00:24:22;4.90;;;2.88;;
28343;SDS011;15597;50.914;6.638;2023-08-17T00:26:48;9.98;;;4.85;;
28343;SDS011;15597;50.914;6.638;2023-08-17T00:29:13;7.88;;;3.35;;
28343;SDS011;15597;50.914;6.638;2023-08-17T00:31:40;6.10;;;3.00;;
28343;SDS011;15597;50.914;6.638;2023-08-17T00:34:06;12.10;;;4.68;;
28343;SDS011;15597;50.914;6.638;2023-08-17T00:36:32;5.95;;;3.50;;
28343;SDS011;15597;50.914;6.638;2023-08-17T00:38:58;6.10;;;3.15;;
28343;SDS011;15597;50.914;6.638;2023-08-17T00:41:23;5.95;;;2.90;;
28343;SDS011;15597;50.914;6.638;2023-08-17T00:43:49;5.90;;;3.25;;
28343;SDS011;15597;50.914;6.638;2023-08-17T00:46:16;4.53;;;2.85;;
28343;SDS011;15597;50.914;6.638;2023-08-17T00:48:42;6.90;;;3.65;;
28343;SDS011;15597;50.914;6.638;2023-08-17T00:51:08;5.85;;;3.20;;
28343;SDS011;15597;50.914;6.638;2023-08-17T00:53:34;6.70;;;3.00;;
28343;SDS011;15597;50.914;6.638;2023-08-17T00:56:01;4.40;;;3.03;;
28343;SDS011;15597;50.914;6.638;2023-08-17T00:58:28;5.25;;;3.40;;
28343;SDS011;15597;50.914;6.638;2023-08-17T01:00:54;5.90;;;2.95;;
28343;SDS011;15597;50.914;6.638;2023-08-17T01:03:20;5.95;;;4.05;;
28343;SDS011;15597;50.914;6.638;2023-08-17T01:05:47;6.05;;;3.05;;
28343;SDS011;15597;50.914;6.638;2023-08-17T01:08:13;4.97;;;3.13;;
28343;SDS011;15597;50.914;6.638;2023-08-17T01:10:47;6.13;;;3.28;;
28343;SDS011;15597;50.914;6.638;2023-08-17T01:16:22;4.78;;;2.70;;
28343;SDS011;15597;50.914;6.638;2023-08-17T01:18:52;7.75;;;4.13;;
28343;SDS011;15597;50.914;6.638;2023-08-17T01:21:21;7.75;;;3.78;;
28343;SDS011;15597;50.914;6.638;2023-08-17T01:23:49;4.28;;;2.53;;
28343;SDS011;15597;50.914;6.638;2023-08-17T01:26:16;5.15;;;2.63;;
28343;SDS011;15597;50.914;6.638;2023-08-17T01:28:43;6.13;;;3.33;;
28343;SDS011;15597;50.914;6.638;2023-08-17T01:34:14;6.72;;;3.83;;
28343;SDS011;15597;50.914;6.638;2023-08-17T01:36:50;4.80;;;2.80;;
28343;SDS011;15597;50.914;6.638;2023-08-17T01:39:19;6.45;;;3.80;;
28343;SDS011;15597;50.914;6.638;2023-08-17T01:41:52;7.55;;;3.47;;
28343;SDS011;15597;50.914;6.638;2023-08-17T01:44:20;4.72;;;2.90;;
28343;SDS011;15597;50.914;6.638;2023-08-17T01:46:47;5.10;;;2.92;;
28343;SDS011;15597;50.914;6.638;2023-08-17T01:49:13;5.10;;;2.53;;
28343;SDS011;15597;50.914;6.638;2023-08-17T01:51:39;5.70;;;2.63;;
28343;SDS011;15597;50.914;6.638;2023-08-17T01:54:05;5.95;;;4.15;;
28343;SDS011;15597;50.914;6.638;2023-08-17T01:56:32;8.30;;;4.28;;
28343;SDS011;15597;50.914;6.638;2023-08-17T01:58:58;7.15;;;4.90;;
28343;SDS011;15597;50.914;6.638;2023-08-17T02:01:23;7.57;;;4.03;;
28343;SDS011;15597;50.914;6.638;2023-08-17T02:03:49;5.60;;;3.55;;
28343;SDS011;15597;50.914;6.638;2023-08-17T02:06:15;4.07;;;2.50;;
28343;SDS011;15597;50.914;6.638;2023-08-17T02:08:42;5.97;;;3.67;;
28343;SDS011;15597;50.914;6.638;2023-08-17T02:11:09;5.60;;;4.13;;
28343;SDS011;15597;50.914;6.638;2023-08-17T02:16:06;4.90;;;2.70;;
28343;SDS011;15597;50.914;6.638;2023-08-17T02:18:31;4.20;;;2.88;;
28343;SDS011;15597;50.914;6.638;2023-08-17T02:20:59;4.10;;;2.75;;
28343;SDS011;15597;50.914;6.638;2023-08-17T02:23:25;4.47;;;2.80;;
28343;SDS011;15597;50.914;6.638;2023-08-17T02:25:51;4.70;;;3.10;;
28343;SDS011;15597;50.914;6.638;2023-08-17T02:30:45;6.80;;;4.40;;
28343;SDS011;15597;50.914;6.638;2023-08-17T02:33:11;5.50;;;3.80;;
28343;SDS011;15597;50.914;6.638;2023-08-17T02:35:37;4.20;;;2.83;;
28343;SDS011;15597;50.914;6.638;2023-08-17T02:38:03;6.50;;;4.25;;
28343;SDS011;15597;50.914;6.638;2023-08-17T02:40:28;5.85;;;3.38;;
28343;SDS011;15597;50.914;6.638;2023-08-17T02:42:54;4.10;;;2.78;;
28343;SDS011;15597;50.914;6.638;2023-08-17T02:45:21;5.57;;;3.90;;
28343;SDS011;15597;50.914;6.638;2023-08-17T02:47:47;4.60;;;2.80;;
28343;SDS011;15597;50.914;6.638;2023-08-17T02:50:14;5.25;;;3.58;;
28343;SDS011;15597;50.914;6.638;2023-08-17T02:52:40;9.20;;;4.68;;
28343;SDS011;15597;50.914;6.638;2023-08-17T02:55:05;7.80;;;5.40;;
28343;SDS011;15597;50.914;6.638;2023-08-17T02:57:31;5.55;;;3.72;;
28343;SDS011;15597;50.914;6.638;2023-08-17T02:59:57;6.68;;;4.70;;
28343;SDS011;15597;50.914;6.638;2023-08-17T03:02:23;6.25;;;3.75;;
28343;SDS011;15597;50.914;6.638;2023-08-17T03:04:49;7.78;;;4.03;;
28343;SDS011;15597;50.914;6.638;2023-08-17T03:07:14;7.13;;;3.85;;
28343;SDS011;15597;50.914;6.638;2023-08-17T03:09:40;6.32;;;3.85;;
28343;SDS011;15597;50.914;6.638;2023-08-17T03:12:06;9.30;;;5.80;;
28343;SDS011;15597;50.914;6.638;2023-08-17T03:14:32;5.72;;;3.60;;
28343;SDS011;15597;50.914;6.638;2023-08-17T03:16:58;7.03;;;4.25;;
28343;SDS011;15597;50.914;6.638;2023-08-17T03:19:24;5.93;;;3.83;;
28343;SDS011;15597;50.914;6.638;2023-08-17T03:21:50;6.45;;;3.60;;
28343;SDS011;15597;50.914;6.638;2023-08-17T03:24:15;5.68;;;4.43;;
28343;SDS011;15597;50.914;6.638;2023-08-17T03:26:41;7.07;;;4.35;;
28343;SDS011;15597;50.914;6.638;2023-08-17T03:29:07;4.55;;;2.78;;
28343;SDS011;15597;50.914;6.638;2023-08-17T03:31:35;7.03;;;4.43;;
28343;SDS011;15597;50.914;6.638;2023-08-17T03:34:01;5.38;;;3.20;;
28343;SDS011;15597;50.914;6.638;2023-08-17T03:36:27;4.60;;;2.47;;
28343;SDS011;15597;50.914;6.638;2023-08-17T03:38:53;5.85;;;4.25;;
28343;SDS011;15597;50.914;6.638;2023-08-17T03:41:20;5.25;;;2.58;;
28343;SDS011;15597;50.914;6.638;2023-08-17T03:43:48;4.63;;;2.53;;
28343;SDS011;15597;50.914;6.638;2023-08-17T03:46:14;6.55;;;2.97;;
28343;SDS011;15597;50.914;6.638;2023-08-17T03:48:40;6.30;;;4.00;;
28343;SDS011;15597;50.914;6.638;2023-08-17T03:51:06;6.90;;;3.92;;
28343;SDS011;15597;50.914;6.638;2023-08-17T03:53:32;3.97;;;2.45;;
28343;SDS011;15597;50.914;6.638;2023-08-17T03:55:58;6.10;;;3.20;;
28343;SDS011;15597;50.914;6.638;2023-08-17T03:58:24;6.53;;;3.50;;
28343;SDS011;15597;50.914;6.638;2023-08-17T04:00:52;8.20;;;4.32;;
28343;SDS011;15597;50.914;6.638;2023-08-17T04:03:24;4.88;;;2.35;;
28343;SDS011;15597;50.914;6.638;2023-08-17T04:05:50;7.28;;;3.90;;
28343;SDS011;15597;50.914;6.638;2023-08-17T04:08:16;6.28;;;4.00;;
28343;SDS011;15597;50.914;6.638;2023-08-17T04:10:41;4.75;;;2.83;;
28343;SDS011;15597;50.914;6.638;2023-08-17T04:13:07;6.45;;;3.70;;
28343;SDS011;15597;50.914;6.638;2023-08-17T04:15:33;4.22;;;2.80;;
28343;SDS011;15597;50.914;6.638;2023-08-17T04:17:58;5.80;;;3.33;;
28343;SDS011;15597;50.914;6.638;2023-08-17T04:20:25;5.75;;;2.70;;
28343;SDS011;15597;50.914;6.638;2023-08-17T04:22:51;8.52;;;4.90;;
28343;SDS011;15597;50.914;6.638;2023-08-17T04:25:16;4.60;;;2.63;;
28343;SDS011;15597;50.914;6.638;2023-08-17T04:27:42;5.00;;;2.95;;
28343;SDS011;15597;50.914;6.638;2023-08-17T04:30:08;5.38;;;2.80;;
28343;SDS011;15597;50.914;6.638;2023-08-17T04:32:45;4.28;;;2.10;;
28343;SDS011;15597;50.914;6.638;2023-08-17T04:35:18;4.85;;;2.50;;
28343;SDS011;15597;50.914;6.638;2023-08-17T04:37:44;3.17;;;1.83;;
28343;SDS011;15597;50.914;6.638;2023-08-17T04:40:10;4.75;;;3.00;;
28343;SDS011;15597;50.914;6.638;2023-08-17T04:42:36;5.65;;;3.05;;
28343;SDS011;15597;50.914;6.638;2023-08-17T04:45:02;5.03;;;2.83;;
28343;SDS011;15597;50.914;6.638;2023-08-17T04:47:29;4.95;;;3.03;;
28343;SDS011;15597;50.914;6.638;2023-08-17T04:49:54;3.53;;;2.10;;
28343;SDS011;15597;50.914;6.638;2023-08-17T04:52:20;6.00;;;3.38;;
28343;SDS011;15597;50.914;6.638;2023-08-17T04:54:46;3.90;;;2.17;;
28343;SDS011;15597;50.914;6.638;2023-08-17T04:57:11;4.68;;;2.25;;
28343;SDS011;15597;50.914;6.638;2023-08-17T04:59:37;5.88;;;3.05;;
28343;SDS011;15597;50.914;6.638;2023-08-17T05:02:04;3.55;;;2.20;;
28343;SDS011;15597;50.914;6.638;2023-08-17T05:04:31;4.28;;;2.55;;
28343;SDS011;15597;50.914;6.638;2023-08-17T05:06:57;4.90;;;2.70;;
28343;SDS011;15597;50.914;6.638;2023-08-17T05:09:22;6.18;;;3.45;;
28343;SDS011;15597;50.914;6.638;2023-08-17T05:11:48;13.63;;;5.43;;
28343;SDS011;15597;50.914;6.638;2023-08-17T05:14:14;5.20;;;2.90;;
28343;SDS011;15597;50.914;6.638;2023-08-17T05:16:39;6.88;;;3.28;;
28343;SDS011;15597;50.914;6.638;2023-08-17T05:19:05;9.65;;;4.47;;
28343;SDS011;15597;50.914;6.638;2023-08-17T05:21:31;7.50;;;4.28;;
28343;SDS011;15597;50.914;6.638;2023-08-17T05:23:57;8.52;;;4.07;;
28343;SDS011;15597;50.914;6.638;2023-08-17T05:26:23;7.00;;;3.20;;
28343;SDS011;15597;50.914;6.638;2023-08-17T05:28:48;7.22;;;3.75;;
28343;SDS011;15597;50.914;6.638;2023-08-17T05:31:15;8.88;;;3.53;;
28343;SDS011;15597;50.914;6.638;2023-08-17T05:33:44;7.78;;;3.20;;
28343;SDS011;15597;50.914;6.638;2023-08-17T05:36:10;6.97;;;3.20;;
28343;SDS011;15597;50.914;6.638;2023-08-17T05:38:36;7.38;;;3.30;;
28343;SDS011;15597;50.914;6.638;2023-08-17T05:41:01;6.75;;;3.15;;
28343;SDS011;15597;50.914;6.638;2023-08-17T05:43:27;9.05;;;4.45;;
28343;SDS011;15597;50.914;6.638;2023-08-17T05:45:52;9.88;;;5.28;;
28343;SDS011;15597;50.914;6.638;2023-08-17T05:48:18;8.52;;;5.55;;
28343;SDS011;15597;50.914;6.638;2023-08-17T05:50:45;8.30;;;4.78;;
28343;SDS011;15597;50.914;6.638;2023-08-17T05:53:11;8.50;;;5.10;;
28343;SDS011;15597;50.914;6.638;2023-08-17T05:55:37;9.88;;;4.82;;
28343;SDS011;15597;50.914;6.638;2023-08-17T05:58:03;8.23;;;4.38;;
28343;SDS011;15597;50.914;6.638;2023-08-17T06:00:29;8.32;;;4.78;;
28343;SDS011;15597;50.914;6.638;2023-08-17T06:02:55;10.80;;;5.72;;
28343;SDS011;15597;50.914;6.638;2023-08-17T06:05:26;9.13;;;4.47;;
28343;SDS011;15597;50.914;6.638;2023-08-17T06:07:57;9.00;;;5.15;;
28343;SDS011;15597;50.914;6.638;2023-08-17T06:10:23;9.52;;;4.75;;
28343;SDS011;15597;50.914;6.638;2023-08-17T06:12:53;11.45;;;4.20;;
28343;SDS011;15597;50.914;6.638;2023-08-17T06:15:20;9.52;;;5.35;;
28343;SDS011;15597;50.914;6.638;2023-08-17T06:17:45;10.68;;;6.28;;
28343;SDS011;15597;50.914;6.638;2023-08-17T06:20:11;9.43;;;4.60;;
28343;SDS011;15597;50.914;6.638;2023-08-17T06:22:37;15.70;;;4.95;;
28343;SDS011;15597;50.914;6.638;2023-08-17T06:25:03;12.35;;;6.93;;
28343;SDS011;15597;50.914;6.638;2023-08-17T06:29:56;9.18;;;4.65;;
28343;SDS011;15597;50.914;6.638;2023-08-17T06:32:22;8.45;;;4.55;;
28343;SDS011;15597;50.914;6.638;2023-08-17T06:34:47;8.07;;;4.85;;
28343;SDS011;15597;50.914;6.638;2023-08-17T06:37:13;11.55;;;6.35;;
28343;SDS011;15597;50.914;6.638;2023-08-17T06:39:39;9.65;;;4.50;;
28343;SDS011;15597;50.914;6.638;2023-08-17T06:42:05;9.18;;;5.22;;
28343;SDS011;15597;50.914;6.638;2023-08-17T06:44:31;7.82;;;4.55;;
28343;SDS011;15597;50.914;6.638;2023-08-17T06:46:56;7.97;;;4.43;;
28343;SDS011;15597;50.914;6.638;2023-08-17T06:49:22;7.50;;;4.57;;
28343;SDS011;15597;50.914;6.638;2023-08-17T06:51:48;7.50;;;5.30;;
28343;SDS011;15597;50.914;6.638;2023-08-17T06:54:13;7.78;;;4.97;;
28343;SDS011;15597;50.914;6.638;2023-08-17T06:56:39;9.15;;;4.85;;
28343;SDS011;15597;50.914;6.638;2023-08-17T06:59:04;8.98;;;4.60;;
28343;SDS011;15597;50.914;6.638;2023-08-17T07:01:30;7.72;;;4.20;;
28343;SDS011;15597;50.914;6.638;2023-08-17T07:03:57;8.85;;;4.22;;
28343;SDS011;15597;50.914;6.638;2023-08-17T07:06:23;7.80;;;4.50;;
28343;SDS011;15597;50.914;6.638;2023-08-17T07:08:49;6.25;;;3.83;;
28343;SDS011;15597;50.914;6.638;2023-08-17T07:11:15;9.75;;;6.28;;
28343;SDS011;15597;50.914;6.638;2023-08-17T07:13:40;9.15;;;4.13;;
28343;SDS011;15597;50.914;6.638;2023-08-17T07:16:06;9.50;;;5.90;;
28343;SDS011;15597;50.914;6.638;2023-08-17T07:18:32;12.18;;;7.10;;
28343;SDS011;15597;50.914;6.638;2023-08-17T07:20:57;7.35;;;4.57;;
28343;SDS011;15597;50.914;6.638;2023-08-17T07:23:23;6.82;;;4.20;;
28343;SDS011;15597;50.914;6.638;2023-08-17T07:25:49;6.93;;;4.53;;
28343;SDS011;15597;50.914;6.638;2023-08-17T07:28:15;6.28;;;3.70;;
28343;SDS011;15597;50.914;6.638;2023-08-17T07:30:40;6.25;;;3.90;;
28343;SDS011;15597;50.914;6.638;2023-08-17T07:33:06;10.25;;;3.95;;
28343;SDS011;15597;50.914;6.638;2023-08-17T07:35:32;9.60;;;5.15;;
28343;SDS011;15597;50.914;6.638;2023-08-17T07:37:57;7.18;;;4.32;;
28343;SDS011;15597;50.914;6.638;2023-08-17T07:40:23;8.13;;;4.32;;
28343;SDS011;15597;50.914;6.638;2023-08-17T07:42:48;8.50;;;6.30;;
28343;SDS011;15597;50.914;6.638;2023-08-17T07:45:14;6.93;;;4.57;;
28343;SDS011;15597;50.914;6.638;2023-08-17T07:47:40;7.20;;;4.05;;
28343;SDS011;15597;50.914;6.638;2023-08-17T07:50:06;7.47;;;4.72;;
28343;SDS011;15597;50.914;6.638;2023-08-17T07:52:32;6.97;;;4.43;;
28343;SDS011;15597;50.914;6.638;2023-08-17T07:54:57;9.98;;;5.43;;
28343;SDS011;15597;50.914;6.638;2023-08-17T07:57:23;9.63;;;5.55;;
28343;SDS011;15597;50.914;6.638;2023-08-17T07:59:48;6.22;;;4.20;;
28343;SDS011;15597;50.914;6.638;2023-08-17T08:02:14;11.85;;;6.45;;
28343;SDS011;15597;50.914;6.638;2023-08-17T08:04:39;7.22;;;4.55;;
28343;SDS011;15597;50.914;6.638;2023-08-17T08:07:05;10.02;;;4.30;;
28343;SDS011;15597;50.914;6.638;2023-08-17T08:09:31;14.55;;;7.55;;
28343;SDS011;15597;50.914;6.638;2023-08-17T08:11:56;7.13;;;4.70;;
28343;SDS011;15597;50.914;6.638;2023-08-17T08:14:22;10.10;;;6.70;;
28343;SDS011;15597;50.914;6.638;2023-08-17T08:16:47;9.18;;;5.10;;
28343;SDS011;15597;50.914;6.638;2023-08-17T08:19:13;8.55;;;5.07;;
28343;SDS011;15597;50.914;6.638;2023-08-17T08:21:38;7.45;;;4.95;;
28343;SDS011;15597;50.914;6.638;2023-08-17T08:24:04;10.65;;;5.68;;
28343;SDS011;15597;50.914;6.638;2023-08-17T08:26:30;7.47;;;4.60;;
28343;SDS011;15597;50.914;6.638;2023-08-17T08:28:55;9.73;;;5.30;;
28343;SDS011;15597;50.914;6.638;2023-08-17T08:31:21;8.57;;;5.50;;
28343;SDS011;15597;50.914;6.638;2023-08-17T08:33:47;10.13;;;5.72;;
28343;SDS011;15597;50.914;6.638;2023-08-17T08:36:12;10.13;;;5.88;;
28343;SDS011;15597;50.914;6.638;2023-08-17T08:38:38;8.05;;;4.57;;
28343;SDS011;15597;50.914;6.638;2023-08-17T08:41:03;11.82;;;6.40;;
28343;SDS011;15597;50.914;6.638;2023-08-17T08:43:31;9.77;;;6.10;;
28343;SDS011;15597;50.914;6.638;2023-08-17T08:45:57;9.20;;;4.65;;
28343;SDS011;15597;50.914;6.638;2023-08-17T08:48:24;14.00;;;9.40;;
28343;SDS011;15597;50.914;6.638;2023-08-17T08:50:51;9.63;;;6.50;;
28343;SDS011;15597;50.914;6.638;2023-08-17T08:53:21;14.30;;;8.98;;
28343;SDS011;15597;50.914;6.638;2023-08-17T08:55:59;11.00;;;6.80;;
28343;SDS011;15597;50.914;6.638;2023-08-17T08:58:25;9.82;;;7.05;;
28343;SDS011;15597;50.914;6.638;2023-08-17T09:00:52;8.43;;;5.50;;
28343;SDS011;15597;50.914;6.638;2023-08-17T09:03:17;15.18;;;11.27;;
28343;SDS011;15597;50.914;6.638;2023-08-17T09:05:47;19.05;;;11.05;;
28343;SDS011;15597;50.914;6.638;2023-08-17T09:08:14;16.50;;;9.35;;
28343;SDS011;15597;50.914;6.638;2023-08-17T09:10:41;10.32;;;6.40;;
28343;SDS011;15597;50.914;6.638;2023-08-17T09:13:07;12.90;;;7.43;;
28343;SDS011;15597;50.914;6.638;2023-08-17T09:15:34;10.50;;;7.57;;
28343;SDS011;15597;50.914;6.638;2023-08-17T09:17:59;15.55;;;8.75;;
28343;SDS011;15597;50.914;6.638;2023-08-17T09:25:40;13.80;;;9.35;;
28343;SDS011;15597;50.914;6.638;2023-08-17T09:28:07;13.38;;;8.85;;
28343;SDS011;15597;50.914;6.638;2023-08-17T09:33:14;21.25;;;14.32;;
28343;SDS011;15597;50.914;6.638;2023-08-17T09:35:41;13.77;;;9.75;;
28343;SDS011;15597;50.914;6.638;2023-08-17T09:38:07;14.13;;;9.65;;
28343;SDS011;15597;50.914;6.638;2023-08-17T09:40:33;18.90;;;12.70;;
28343;SDS011;15597;50.914;6.638;2023-08-17T09:42:59;15.80;;;11.35;;
28343;SDS011;15597;50.914;6.638;2023-08-17T09:45:25;15.48;;;10.45;;
28343;SDS011;15597;50.914;6.638;2023-08-17T09:47:52;17.52;;;11.45;;
28343;SDS011;15597;50.914;6.638;2023-08-17T09:50:21;14.82;;;10.73;;
28343;SDS011;15597;50.914;6.638;2023-08-17T09:52:47;19.55;;;11.10;;
28343;SDS011;15597;50.914;6.638;2023-08-17T09:55:20;17.35;;;10.32;;
28343;SDS011;15597;50.914;6.638;2023-08-17T09:57:48;16.23;;;10.65;;
28343;SDS011;15597;50.914;6.638;2023-08-17T10:00:15;16.20;;;10.95;;
28343;SDS011;15597;50.914;6.638;2023-08-17T10:02:42;17.52;;;11.43;;
28343;SDS011;15597;50.914;6.638;2023-08-17T10:05:10;16.75;;;11.23;;
28343;SDS011;15597;50.914;6.638;2023-08-17T10:07:41;16.02;;;10.82;;
28343;SDS011;15597;50.914;6.638;2023-08-17T10:10:11;17.80;;;9.93;;
28343;SDS011;15597;50.914;6.638;2023-08-17T10:12:37;21.00;;;12.48;;
28343;SDS011;15597;50.914;6.638;2023-08-17T10:15:11;15.68;;;11.48;;
28343;SDS011;15597;50.914;6.638;2023-08-17T10:20:40;18.55;;;11.57;;
28343;SDS011;15597;50.914;6.638;2023-08-17T10:23:12;14.73;;;9.88;;
28343;SDS011;15597;50.914;6.638;2023-08-17T10:25:40;17.33;;;11.32;;
28343;SDS011;15597;50.914;6.638;2023-08-17T10:28:07;19.70;;;11.65;;
28343;SDS011;15597;50.914;6.638;2023-08-17T10:30:35;17.77;;;11.77;;
28343;SDS011;15597;50.914;6.638;2023-08-17T10:33:02;16.33;;;10.70;;
28343;SDS011;15597;50.914;6.638;2023-08-17T10:35:33;20.80;;;12.55;;
28343;SDS011;15597;50.914;6.638;2023-08-17T10:37:59;18.27;;;11.25;;
28343;SDS011;15597;50.914;6.638;2023-08-17T10:40:26;18.35;;;10.38;;
28343;SDS011;15597;50.914;6.638;2023-08-17T10:42:55;16.23;;;9.98;;
28343;SDS011;15597;50.914;6.638;2023-08-17T10:45:27;19.23;;;10.77;;
28343;SDS011;15597;50.914;6.638;2023-08-17T10:47:59;19.42;;;10.45;;
28343;SDS011;15597;50.914;6.638;2023-08-17T10:50:37;19.40;;;12.88;;
28343;SDS011;15597;50.914;6.638;2023-08-17T10:53:13;16.42;;;10.88;;
28343;SDS011;15597;50.914;6.638;2023-08-17T10:55:46;16.15;;;9.95;;
28343;SDS011;15597;50.914;6.638;2023-08-17T10:58:14;16.48;;;10.90;;
28343;SDS011;15597;50.914;6.638;2023-08-17T11:00:40;18.80;;;11.43;;
28343;SDS011;15597;50.914;6.638;2023-08-17T11:03:19;20.33;;;11.77;;
28343;SDS011;15597;50.914;6.638;2023-08-17T11:05:49;15.20;;;9.48;;
28343;SDS011;15597;50.914;6.638;2023-08-17T11:08:28;16.50;;;9.95;;
28343;SDS011;15597;50.914;6.638;2023-08-17T11:11:05;20.60;;;12.75;;
28343;SDS011;15597;50.914;6.638;2023-08-17T11:13:35;18.52;;;10.90;;
28343;SDS011;15597;50.914;6.638;2023-08-17T11:16:02;15.23;;;10.32;;
28343;SDS011;15597;50.914;6.638;2023-08-17T11:18:29;16.60;;;10.43;;
28343;SDS011;15597;50.914;6.638;2023-08-17T11:20:56;16.83;;;10.38;;
28343;SDS011;15597;50.914;6.638;2023-08-17T11:23:22;16.95;;;10.13;;
28343;SDS011;15597;50.914;6.638;2023-08-17T11:25:49;13.95;;;9.18;;
28343;SDS011;15597;50.914;6.638;2023-08-17T11:28:16;14.88;;;9.57;;
28343;SDS011;15597;50.914;6.638;2023-08-17T11:30:42;15.45;;;9.68;;
28343;SDS011;15597;50.914;6.638;2023-08-17T11:33:08;18.35;;;9.45;;
28343;SDS011;15597;50.914;6.638;2023-08-17T11:35:38;14.27;;;9.98;;
28343;SDS011;15597;50.914;6.638;2023-08-17T11:38:04;15.32;;;10.32;;
28343;SDS011;15597;50.914;6.638;2023-08-17T11:40:31;14.77;;;9.10;;
28343;SDS011;15597;50.914;6.638;2023-08-17T11:42:57;16.00;;;11.02;;
28343;SDS011;15597;50.914;6.638;2023-08-17T11:45:23;14.35;;;9.80;;
28343;SDS011;15597;50.914;6.638;2023-08-17T11:47:51;16.05;;;9.65;;
28343;SDS011;15597;50.914;6.638;2023-08-17T11:50:19;16.95;;;10.18;;
28343;SDS011;15597;50.914;6.638;2023-08-17T11:52:45;16.48;;;10.10;;
28343;SDS011;15597;50.914;6.638;2023-08-17T11:55:10;16.40;;;10.20;;
28343;SDS011;15597;50.914;6.638;2023-08-17T11:57:42;17.63;;;10.95;;
28343;SDS011;15597;50.914;6.638;2023-08-17T12:00:08;17.13;;;10.27;;
28343;SDS011;15597;50.914;6.638;2023-08-17T12:02:35;16.98;;;10.80;;
28343;SDS011;15597;50.914;6.638;2023-08-17T12:05:07;17.23;;;10.98;;
28343;SDS011;15597;50.914;6.638;2023-08-17T12:07:35;15.90;;;9.52;;
28343;SDS011;15597;50.914;6.638;2023-08-17T12:10:04;16.95;;;10.23;;
28343;SDS011;15597;50.914;6.638;2023-08-17T12:12:35;17.42;;;11.82;;
28343;SDS011;15597;50.914;6.638;2023-08-17T12:15:03;16.98;;;10.27;;
28343;SDS011;15597;50.914;6.638;2023-08-17T12:17:29;14.98;;;10.27;;
28343;SDS011;15597;50.914;6.638;2023-08-17T12:19:55;15.40;;;9.27;;
28343;SDS011;15597;50.914;6.638;2023-08-17T12:22:23;20.05;;;11.88;;
28343;SDS011;15597;50.914;6.638;2023-08-17T12:24:50;18.45;;;11.15;;
28343;SDS011;15597;50.914;6.638;2023-08-17T12:27:15;16.02;;;10.70;;
28343;SDS011;15597;50.914;6.638;2023-08-17T12:29:47;17.88;;;10.48;;
28343;SDS011;15597;50.914;6.638;2023-08-17T12:32:17;17.40;;;10.93;;
28343;SDS011;15597;50.914;6.638;2023-08-17T12:34:47;17.13;;;10.38;;
28343;SDS011;15597;50.914;6.638;2023-08-17T12:37:18;22.48;;;13.23;;
28343;SDS011;15597;50.914;6.638;2023-08-17T12:39:45;17.80;;;11.00;;
28343;SDS011;15597;50.914;6.638;2023-08-17T12:42:14;16.98;;;10.98;;
28343;SDS011;15597;50.914;6.638;2023-08-17T12:44:41;18.23;;;11.02;;
28343;SDS011;15597;50.914;6.638;2023-08-17T12:47:07;16.63;;;11.73;;
28343;SDS011;15597;50.914;6.638;2023-08-17T12:49:35;22.05;;;13.68;;
28343;SDS011;15597;50.914;6.638;2023-08-17T12:52:01;18.38;;;10.70;;
28343;SDS011;15597;50.914;6.638;2023-08-17T12:54:27;21.63;;;12.70;;
28343;SDS011;15597;50.914;6.638;2023-08-17T12:56:53;18.45;;;10.88;;
28343;SDS011;15597;50.914;6.638;2023-08-17T12:59:21;15.93;;;10.45;;
28343;SDS011;15597;50.914;6.638;2023-08-17T13:01:48;16.67;;;10.38;;
28343;SDS011;15597;50.914;6.638;2023-08-17T13:04:13;22.15;;;13.55;;
28343;SDS011;15597;50.914;6.638;2023-08-17T13:06:39;15.15;;;9.75;;
28343;SDS011;15597;50.914;6.638;2023-08-17T13:09:04;19.15;;;11.45;;
28343;SDS011;15597;50.914;6.638;2023-08-17T13:11:31;19.08;;;13.27;;
28343;SDS011;15597;50.914;6.638;2023-08-17T13:13:57;22.83;;;14.38;;
28343;SDS011;15597;50.914;6.638;2023-08-17T13:16:23;18.25;;;11.75;;
28343;SDS011;15597;50.914;6.638;2023-08-17T13:18:48;19.38;;;11.77;;
28343;SDS011;15597;50.914;6.638;2023-08-17T13:21:14;20.75;;;12.55;;
28343;SDS011;15597;50.914;6.638;2023-08-17T13:23:43;17.58;;;11.25;;
28343;SDS011;15597;50.914;6.638;2023-08-17T13:26:09;21.25;;;14.07;;
28343;SDS011;15597;50.914;6.638;2023-08-17T13:28:35;19.35;;;12.27;;
28343;SDS011;15597;50.914;6.638;2023-08-17T13:31:01;19.60;;;11.07;;
28343;SDS011;15597;50.914;6.638;2023-08-17T13:33:26;18.05;;;12.20;;
28343;SDS011;15597;50.914;6.638;2023-08-17T13:35:52;19.35;;;11.43;;
28343;SDS011;15597;50.914;6.638;2023-08-17T13:38:17;17.40;;;11.07;;
28343;SDS011;15597;50.914;6.638;2023-08-17T13:40:43;16.00;;;10.10;;
28343;SDS011;15597;50.914;6.638;2023-08-17T13:43:09;18.73;;;10.88;;
28343;SDS011;15597;50.914;6.638;2023-08-17T13:45:38;20.38;;;12.13;;
28343;SDS011;15597;50.914;6.638;2023-08-17T13:48:07;21.23;;;11.43;;
28343;SDS011;15597;50.914;6.638;2023-08-17T13:50:33;18.05;;;11.95;;
28343;SDS011;15597;50.914;6.638;2023-08-17T13:53:03;13.95;;;7.88;;
28343;SDS011;15597;50.914;6.638;2023-08-17T13:55:29;19.10;;;11.40;;
28343;SDS011;15597;50.914;6.638;2023-08-17T13:57:55;16.65;;;11.10;;
28343;SDS011;15597;50.914;6.638;2023-08-17T14:00:22;14.93;;;8.90;;
28343;SDS011;15597;50.914;6.638;2023-08-17T14:02:48;17.23;;;10.35;;
28343;SDS011;15597;50.914;6.638;2023-08-17T14:05:14;11.77;;;7.85;;
28343;SDS011;15597;50.914;6.638;2023-08-17T14:07:42;17.85;;;9.85;;
28343;SDS011;15597;50.914;6.638;2023-08-17T14:10:08;19.80;;;11.70;;
28343;SDS011;15597;50.914;6.638;2023-08-17T14:12:34;15.73;;;10.27;;
28343;SDS011;15597;50.914;6.638;2023-08-17T14:15:00;14.35;;;9.25;;
28343;SDS011;15597;50.914;6.638;2023-08-17T14:17:26;16.02;;;9.10;;
28343;SDS011;15597;50.914;6.638;2023-08-17T14:19:51;16.40;;;10.52;;
28343;SDS011;15597;50.914;6.638;2023-08-17T14:22:17;20.25;;;11.88;;
28343;SDS011;15597;50.914;6.638;2023-08-17T14:24:43;15.98;;;10.85;;
28343;SDS011;15597;50.914;6.638;2023-08-17T14:27:08;15.10;;;9.70;;
28343;SDS011;15597;50.914;6.638;2023-08-17T14:29:34;15.32;;;9.68;;
28343;SDS011;15597;50.914;6.638;2023-08-17T14:32:03;17.40;;;10.82;;
28343;SDS011;15597;50.914;6.638;2023-08-17T14:34:31;14.50;;;10.02;;
28343;SDS011;15597;50.914;6.638;2023-08-17T14:36:57;16.88;;;9.70;;
28343;SDS011;15597;50.914;6.638;2023-08-17T14:39:22;15.77;;;10.38;;
28343;SDS011;15597;50.914;6.638;2023-08-17T14:41:48;17.48;;;10.63;;
28343;SDS011;15597;50.914;6.638;2023-08-17T14:44:13;18.13;;;11.63;;
28343;SDS011;15597;50.914;6.638;2023-08-17T14:46:39;18.58;;;11.45;;
28343;SDS011;15597;50.914;6.638;2023-08-17T14:49:05;19.58;;;12.10;;
28343;SDS011;15597;50.914;6.638;2023-08-17T14:51:36;17.95;;;10.65;;
28343;SDS011;15597;50.914;6.638;2023-08-17T14:54:03;15.65;;;10.05;;
28343;SDS011;15597;50.914;6.638;2023-08-17T14:56:29;19.20;;;12.65;;
28343;SDS011;15597;50.914;6.638;2023-08-17T14:58:54;17.10;;;11.60;;